Close

Questo sito utlizza cookie. Può leggere come li usiamo nella nostra Privacy Policy.

Ronchi Tower
Ronchi Tower

From Facebook

METAR & TAF

2021/05/13 02:20 LIPQ 130220Z AUTO 34002KT 9999 FEW025/// BKN073/// BKN090/// 13/13 Q1005
2021/05/12 18:35 TAF COR LIPQ 121826Z 1218/1318 22007KT 9999 SCT060 TEMPO 1303/1316 TSRA
2021/05/13 02:20 LIPZ 130220Z 28005KT 9999 FEW070 13/12 Q1005 NOSIG
2021/05/12 18:21 TAF LIPZ 121700Z 1218/1324 03007KT 9999 SCT040 TEMPO 1218/1224 SHRA TEMPO 1309/1318 TSRA BECMG 1310/1312 15010KT
2021/05/13 02:20 LIPH 130220Z AUTO 25003KT 9000 -RA OVC078/// 13/13 Q1005
2021/05/12 18:58 TAF AMD LIPH 121852Z 1218/1318 VRB05KT 9999 SCT060 TEMPO 1218/1224 TSRA TEMPO 1309/1316 TSRA
2021/05/13 02:20 LIRF 130220Z 25010KT 9999 SHRA FEW027 SCT045 15/13 Q1009 NOSIG
2021/05/12 18:21 TAF LIRF 121700Z 1218/1324 26012KT 9999 SCT030 TEMPO 1223/1306 4000 TSRA TEMPO 1306/1310 4000 SHRA BECMG 1308/1310 26018G28KT BECMG 1322/1324 26013KT
2021/05/13 02:20 LIML 130220Z AUTO VRB02KT 9999 BKN088/// 14/09 Q1006
2021/05/12 18:21 TAF LIML 121700Z 1218/1318 VRB05KT 9999 SCT030 TEMPO 1218/1301 TSRA BKN014 TEMPO 1315/1318 4000 TSRA BKN014
2021/05/13 02:20 EDDM 130220Z 25006KT 9999 -RA FEW018 SCT028 BKN045 09/08 Q1008 NOSIG
2021/05/12 18:27 TAF EDDM 121700Z 1218/1324 26007KT 9000 FEW007 BKN015 BECMG 1218/1220 BKN012 PROB40 TEMPO 1301/1308 4000 -RADZ BKN007 BECMG 1311/1313 BKN020 PROB40 TEMPO 1312/1317 SHRA BKN020TCU
2021/05/13 02:20 EGSS 130220Z AUTO 06008KT 9999 SCT040 BKN049 10/07 Q1007
2021/05/12 18:09 TAF EGSS 121657Z 1218/1324 13007KT 9999 SCT045 PROB30 TEMPO 1222/1309 8000 -RA PROB30 TEMPO 1309/1312 7000 SHRA BKN014 TEMPO 1312/1324 5000 SHRA PROB30 TEMPO 1312/1322 BKN014 PROB40 TEMPO 1322/1324 BKN007
2021/05/13 02:20 EDDF 130220Z VRB02KT 9999 FEW044 07/06 Q1009 NOSIG
2021/05/13 00:00 TAF EDDF 122300Z 1300/1406 VRB03KT 9999 FEW045 PROB40 TEMPO 1300/1307 3000 BR PROB30 TEMPO 1302/1306 1000 BCFG BECMG 1308/1311 24007KT TEMPO 1310/1318 SHRA BKN030CB PROB30 TEMPO 1312/1316 4000 TSRA BKN014 BKN030CB PROB30 TEMPO 1403/1406 3000 BR

FlightRadar24

Radar Meteo

Traffic data

Agosto 2018

Passeggeri: 63892-12,9% (rank: 23)
Nazionali 34490 -19,8%
Internazionali 29193 -3,0%

Movimenti: 1307+11,7% (rank: 24)
Tot commerciale 556 -7,2%
Aviazione generale 751 +31,5%

Cargo (tons): 20,6+62,5% (rank: 21)

Gennaio - Agosto 2018

Passeggeri: 507438-3,5% (rank: 23)
Nazionali 322655 -4,9%
Internazionali 182927 -0,7%

Movimenti: 10366-4,25 (rank: 22)
Tot commerciale 5328 -11,0%
Aviazione generale 5038 +4,2%

Cargo (tons): 299,2+61,9% (rank: 20)

Photo

Douglas DC-6B
Douglas DC-6B
Distinct views: 13
Douglas DC-6B
Douglas DC-6B
Distinct views: 47
Douglas DC-6B
Douglas DC-6B
Distinct views: 168
Learjet 35A/ZR
Learjet 35A/ZR
Total views: 3765